Time;durP1;ratioP1;P1;durP2;ratioP2;P2;SDS_P1;SDS_P2;PMS_P1;PMS_P2;Temp;Humidity;BMP_temperature;BMP_pressure;BME280_temperature;BME280_humidity;BME280_pressure;Samples;Min_cycle;Max_cycle;Signal;HPM_P1;HPM_P2
2023/09/26 00:02:26;;;;;;;6.80;5.97;;;;;;;;;;4935108;29;20207;-72
2023/09/26 00:05:32;;;;;;;7.83;7.03;;;;;;;;;;4935859;29;20184;-72
2023/09/26 00:08:36;;;;;;;8.63;7.00;;;;;;;;;;4935746;29;20188;-72
2023/09/26 00:11:42;;;;;;;7.73;6.97;;;;;;;;;;4934767;29;20223;-72
2023/09/26 00:14:46;;;;;;;6.73;6.10;;;;;;;;;;4935196;29;20185;-72
2023/09/26 00:17:50;;;;;;;8.10;6.37;;;;;;;;;;4936175;29;20188;-72
2023/09/26 00:20:54;;;;;;;8.87;6.40;;;;;;;;;;4938459;29;20237;-72
2023/09/26 00:23:58;;;;;;;6.73;5.73;;;;;;;;;;4938897;29;20188;-72
2023/09/26 00:27:02;;;;;;;7.50;6.70;;;;;;;;;;4940177;29;20184;-72
2023/09/26 00:30:08;;;;;;;6.90;6.27;;;;;;;;;;4939121;29;20185;-72
2023/09/26 00:33:12;;;;;;;6.90;6.03;;;;;;;;;;4939517;29;20224;-72
2023/09/26 00:36:17;;;;;;;7.47;6.17;;;;;;;;;;4938769;29;20184;-72
2023/09/26 00:39:21;;;;;;;7.50;6.53;;;;;;;;;;4939464;29;20188;-72
2023/09/26 00:42:26;;;;;;;6.87;6.17;;;;;;;;;;4938472;29;20228;-72
2023/09/26 00:45:30;;;;;;;7.70;6.90;;;;;;;;;;4938506;29;20524;-72
2023/09/26 00:48:37;;;;;;;12.40;7.10;;;;;;;;;;4938710;29;20192;-72
2023/09/26 00:51:41;;;;;;;7.93;6.20;;;;;;;;;;4939426;29;20227;-72
2023/09/26 00:54:45;;;;;;;6.80;6.10;;;;;;;;;;4938179;29;20184;-72
2023/09/26 00:57:49;;;;;;;6.53;5.63;;;;;;;;;;4938309;29;20184;-72
2023/09/26 01:00:54;;;;;;;6.13;5.23;;;;;;;;;;4938055;29;20208;-72
2023/09/26 01:03:59;;;;;;;5.97;5.27;;;;;;;;;;4939053;29;20192;-72
2023/09/26 01:07:03;;;;;;;9.30;5.27;;;;;;;;;;4937997;29;20180;-72
2023/09/26 01:10:07;;;;;;;5.40;4.90;;;;;;;;;;4938545;29;20184;-72
2023/09/26 01:13:11;;;;;;;7.87;4.77;;;;;;;;;;4937713;29;20228;-74
2023/09/26 01:16:19;;;;;;;5.37;4.77;;;;;;;;;;4938984;29;20529;-72
2023/09/26 01:19:23;;;;;;;8.90;6.20;;;;;;;;;;4938678;29;20184;-72
2023/09/26 01:22:30;;;;;;;7.33;5.83;;;;;;;;;;4937485;29;20340;-72
2023/09/26 01:25:35;;;;;;;7.47;6.27;;;;;;;;;;4937535;29;20180;-72
2023/09/26 01:28:40;;;;;;;7.17;6.20;;;;;;;;;;4937524;29;20188;-72
2023/09/26 01:31:44;;;;;;;7.43;6.53;;;;;;;;;;4937501;29;20220;-72
2023/09/26 01:34:47;;;;;;;8.23;6.97;;;;;;;;;;4937479;29;20184;-72
2023/09/26 01:37:51;;;;;;;7.53;6.17;;;;;;;;;;4926897;29;20180;-73
2023/09/26 01:40:56;;;;;;;7.13;6.43;;;;;;;;;;4937178;29;20204;-72
2023/09/26 01:44:00;;;;;;;7.10;6.27;;;;;;;;;;4937208;29;20184;-72
2023/09/26 01:47:04;;;;;;;7.77;6.73;;;;;;;;;;4938015;29;20184;-72
2023/09/26 01:50:09;;;;;;;10.63;6.97;;;;;;;;;;4926518;29;20192;-72
2023/09/26 01:53:14;;;;;;;6.93;6.23;;;;;;;;;;4926599;29;20216;-72
2023/09/26 01:56:18;;;;;;;8.07;6.73;;;;;;;;;;4938030;29;20189;-72
2023/09/26 01:59:22;;;;;;;9.57;7.53;;;;;;;;;;4937188;29;20188;-71
2023/09/26 02:02:27;;;;;;;8.27;7.07;;;;;;;;;;4937103;29;20232;-72
2023/09/26 02:05:31;;;;;;;8.50;6.13;;;;;;;;;;4937360;29;20632;-72
2023/09/26 02:08:35;;;;;;;8.20;7.33;;;;;;;;;;4937131;29;20180;-72
2023/09/26 02:11:40;;;;;;;8.50;7.37;;;;;;;;;;4937148;29;20215;-72
2023/09/26 02:14:43;;;;;;;7.60;6.80;;;;;;;;;;4937232;29;20185;-72
2023/09/26 02:17:48;;;;;;;7.40;6.70;;;;;;;;;;4937100;29;20632;-72
2023/09/26 02:20:53;;;;;;;9.87;6.97;;;;;;;;;;4937229;29;20184;-72
2023/09/26 02:23:57;;;;;;;9.30;7.70;;;;;;;;;;4936624;29;20188;-72
2023/09/26 02:27:01;;;;;;;8.23;7.40;;;;;;;;;;4936955;29;20188;-72
2023/09/26 02:30:06;;;;;;;8.33;7.20;;;;;;;;;;4936879;29;20180;-72
2023/09/26 02:33:10;;;;;;;7.87;7.03;;;;;;;;;;4936547;29;20220;-72
2023/09/26 02:36:14;;;;;;;8.13;6.80;;;;;;;;;;4937038;29;20192;-72
2023/09/26 02:39:19;;;;;;;7.90;7.10;;;;;;;;;;4937276;29;20191;-72
2023/09/26 02:42:23;;;;;;;8.37;7.27;;;;;;;;;;4936315;29;20231;-72
2023/09/26 02:45:28;;;;;;;8.07;6.80;;;;;;;;;;4936371;29;20628;-72
2023/09/26 02:48:31;;;;;;;8.23;7.37;;;;;;;;;;4936313;29;20184;-72
2023/09/26 02:51:36;;;;;;;7.60;6.80;;;;;;;;;;4936198;29;20220;-72
2023/09/26 02:54:40;;;;;;;7.57;6.70;;;;;;;;;;4935920;29;20188;-72
2023/09/26 02:57:44;;;;;;;7.47;6.60;;;;;;;;;;4936132;29;20608;-72
2023/09/26 03:00:50;;;;;;;6.93;6.23;;;;;;;;;;4936833;29;20188;-72
2023/09/26 03:03:55;;;;;;;7.27;5.77;;;;;;;;;;4935975;29;20181;-72
2023/09/26 03:06:59;;;;;;;9.93;6.43;;;;;;;;;;4925072;29;20196;-72
2023/09/26 03:10:03;;;;;;;7.40;6.37;;;;;;;;;;4935918;29;20185;-72
2023/09/26 03:13:08;;;;;;;6.23;5.63;;;;;;;;;;4936365;29;20224;-72
2023/09/26 03:16:14;;;;;;;9.03;6.17;;;;;;;;;;4936351;29;20184;-72
2023/09/26 03:19:23;;;;;;;7.70;5.97;;;;;;;;;;4935839;29;20533;-72
2023/09/26 03:22:27;;;;;;;6.80;6.10;;;;;;;;;;4935686;29;20228;-72
2023/09/26 03:25:32;;;;;;;6.40;5.80;;;;;;;;;;4935970;29;20184;-72
2023/09/26 03:28:36;;;;;;;8.17;6.67;;;;;;;;;;4936659;29;20188;-72
2023/09/26 03:31:41;;;;;;;6.13;5.53;;;;;;;;;;4935647;29;20212;-72
2023/09/26 03:34:45;;;;;;;6.33;5.73;;;;;;;;;;4936385;29;20189;-72
2023/09/26 03:37:49;;;;;;;8.10;5.83;;;;;;;;;;4935995;29;20191;-72
2023/09/26 03:41:00;;;;;;;7.57;6.17;;;;;;;;;;4935593;29;20188;-72
2023/09/26 03:44:05;;;;;;;8.33;6.67;;;;;;;;;;4936435;29;20184;-72
2023/09/26 03:47:09;;;;;;;7.50;6.57;;;;;;;;;;4935963;29;20188;-72
2023/09/26 03:50:13;;;;;;;7.77;6.00;;;;;;;;;;4935904;29;20533;-72
2023/09/26 03:53:17;;;;;;;6.50;5.90;;;;;;;;;;4936089;29;20215;-72
2023/09/26 03:56:21;;;;;;;6.73;6.07;;;;;;;;;;4935287;29;20184;-72
2023/09/26 03:59:25;;;;;;;7.83;6.33;;;;;;;;;;4935873;29;20184;-72
2023/09/26 04:02:30;;;;;;;7.97;6.10;;;;;;;;;;4935833;29;20231;-73
2023/09/26 04:05:34;;;;;;;7.33;6.20;;;;;;;;;;4936079;29;20188;-72
2023/09/26 04:08:38;;;;;;;9.07;6.67;;;;;;;;;;4936264;29;20313;-72
2023/09/26 04:11:42;;;;;;;10.43;6.80;;;;;;;;;;4935799;29;20562;-72
2023/09/26 04:14:46;;;;;;;9.40;6.57;;;;;;;;;;4935616;29;20625;-72
2023/09/26 04:17:51;;;;;;;16.00;7.40;;;;;;;;;;4935903;29;20184;-72
2023/09/26 04:20:55;;;;;;;7.50;6.33;;;;;;;;;;4935674;29;20184;-72
2023/09/26 04:24:03;;;;;;;7.77;6.97;;;;;;;;;;4935879;29;20660;-72
2023/09/26 04:27:08;;;;;;;9.17;7.27;;;;;;;;;;4935141;29;20193;-72
2023/09/26 04:30:12;;;;;;;8.17;6.77;;;;;;;;;;4936134;29;20180;-72
2023/09/26 04:33:16;;;;;;;8.90;6.73;;;;;;;;;;4935572;29;20560;-72
2023/09/26 04:36:20;;;;;;;7.50;6.70;;;;;;;;;;4935816;29;20188;-72
2023/09/26 04:39:24;;;;;;;7.37;6.43;;;;;;;;;;4935577;29;20188;-71
2023/09/26 04:42:28;;;;;;;10.73;8.73;;;;;;;;;;4934935;29;20695;-71
2023/09/26 04:45:33;;;;;;;8.77;7.87;;;;;;;;;;4935648;29;20180;-72
2023/09/26 04:48:39;;;;;;;8.07;7.27;;;;;;;;;;4934644;29;20180;-71
2023/09/26 04:51:43;;;;;;;9.80;7.53;;;;;;;;;;4934954;29;20219;-72
2023/09/26 04:54:49;;;;;;;9.77;7.67;;;;;;;;;;4935358;29;20188;-72
2023/09/26 04:57:53;;;;;;;10.47;8.20;;;;;;;;;;4935817;29;20177;-72
2023/09/26 05:01:00;;;;;;;9.30;8.40;;;;;;;;;;4934547;29;20644;-72
2023/09/26 05:04:05;;;;;;;8.67;7.77;;;;;;;;;;4935321;29;20177;-72
2023/09/26 05:07:09;;;;;;;10.30;7.33;;;;;;;;;;4938498;29;20188;-72
2023/09/26 05:10:14;;;;;;;9.50;7.47;;;;;;;;;;4938629;29;20185;-72
2023/09/26 05:13:18;;;;;;;19.63;7.90;;;;;;;;;;4937716;29;20228;-72
2023/09/26 05:16:22;;;;;;;9.20;7.83;;;;;;;;;;4938656;29;20180;-72
2023/09/26 05:19:26;;;;;;;11.03;8.00;;;;;;;;;;4937648;29;20192;-71
2023/09/26 05:22:30;;;;;;;12.50;7.90;;;;;;;;;;4938137;29;20220;-72
2023/09/26 05:25:35;;;;;;;10.00;6.77;;;;;;;;;;4938335;29;20180;-72
2023/09/26 05:28:39;;;;;;;13.40;7.57;;;;;;;;;;4938179;29;20188;-72
2023/09/26 05:31:43;;;;;;;8.90;7.10;;;;;;;;;;4938115;29;20215;-71
2023/09/26 05:34:47;;;;;;;8.60;7.27;;;;;;;;;;4938125;29;20176;-72
2023/09/26 05:37:51;;;;;;;7.83;7.03;;;;;;;;;;4938300;29;20633;-72
2023/09/26 05:40:56;;;;;;;8.40;7.60;;;;;;;;;;4937254;29;20180;-72
2023/09/26 05:44:00;;;;;;;8.23;6.87;;;;;;;;;;4937824;29;20211;-72
2023/09/26 05:47:04;;;;;;;8.23;6.50;;;;;;;;;;4937870;29;20184;-72
2023/09/26 05:50:09;;;;;;;9.20;7.20;;;;;;;;;;4937801;29;20526;-72
2023/09/26 05:53:13;;;;;;;10.17;6.83;;;;;;;;;;4937918;29;20216;-72
2023/09/26 05:56:17;;;;;;;11.17;8.50;;;;;;;;;;4936908;29;20184;-72
2023/09/26 05:59:21;;;;;;;9.93;7.90;;;;;;;;;;4937902;29;20188;-72
2023/09/26 06:02:25;;;;;;;11.77;7.57;;;;;;;;;;4937523;29;20228;-72
2023/09/26 06:05:29;;;;;;;17.40;8.30;;;;;;;;;;4937585;29;20187;-71
2023/09/26 06:08:34;;;;;;;10.47;8.37;;;;;;;;;;4937540;29;20663;-72
2023/09/26 06:11:38;;;;;;;14.00;8.53;;;;;;;;;;4937875;29;20580;-72
2023/09/26 06:14:42;;;;;;;14.40;9.27;;;;;;;;;;4937014;29;20180;-71
2023/09/26 06:17:46;;;;;;;14.27;9.27;;;;;;;;;;4935779;29;20188;-72
2023/09/26 06:20:50;;;;;;;10.27;8.73;;;;;;;;;;4937309;29;20184;-76
2023/09/26 06:23:55;;;;;;;12.47;8.93;;;;;;;;;;4925621;29;20215;-76
2023/09/26 06:26:59;;;;;;;11.43;9.80;;;;;;;;;;4936441;29;20193;-76
2023/09/26 06:30:05;;;;;;;19.60;9.83;;;;;;;;;;4934877;29;20211;-76
2023/09/26 06:33:09;;;;;;;13.63;9.77;;;;;;;;;;4920512;29;20254;-75
2023/09/26 06:36:18;;;;;;;12.87;9.97;;;;;;;;;;4936187;29;20209;-75
2023/09/26 06:39:22;;;;;;;14.13;10.57;;;;;;;;;;4936479;29;20189;-75
2023/09/26 06:42:26;;;;;;;15.93;11.13;;;;;;;;;;4925590;29;20235;-76
2023/09/26 06:45:31;;;;;;;14.13;11.67;;;;;;;;;;4936920;29;20195;-75
2023/09/26 06:48:37;;;;;;;13.70;11.03;;;;;;;;;;4937078;29;20191;-74
2023/09/26 06:51:41;;;;;;;14.17;10.47;;;;;;;;;;4935950;29;20231;-75
2023/09/26 06:54:45;;;;;;;16.07;10.67;;;;;;;;;;4935978;29;20191;-75
2023/09/26 06:57:49;;;;;;;16.30;9.87;;;;;;;;;;4937349;29;20651;-74
2023/09/26 07:00:53;;;;;;;13.10;9.10;;;;;;;;;;4937162;29;20197;-74
2023/09/26 07:03:57;;;;;;;12.63;8.47;;;;;;;;;;4936662;29;20232;-74
2023/09/26 07:07:02;;;;;;;10.43;7.93;;;;;;;;;;4925701;29;20536;-74
2023/09/26 07:10:07;;;;;;;14.47;6.50;;;;;;;;;;4924903;29;20552;-73
2023/09/26 07:13:13;;;;;;;8.03;6.60;;;;;;;;;;4936053;29;20254;-73
2023/09/26 07:16:17;;;;;;;7.93;6.13;;;;;;;;;;4935726;29;20534;-73
2023/09/26 07:19:22;;;;;;;7.93;6.60;;;;;;;;;;4935542;29;20525;-74
2023/09/26 07:22:26;;;;;;;8.77;7.10;;;;;;;;;;4936480;29;20224;-74
2023/09/26 07:25:30;;;;;;;10.00;7.00;;;;;;;;;;4936552;29;20188;-74
2023/09/26 07:28:35;;;;;;;9.27;7.60;;;;;;;;;;4936110;29;20208;-74
2023/09/26 07:31:39;;;;;;;9.33;8.03;;;;;;;;;;4935883;29;20219;-73
2023/09/26 07:34:43;;;;;;;8.47;7.27;;;;;;;;;;4925014;29;20184;-75
2023/09/26 07:37:47;;;;;;;11.17;7.13;;;;;;;;;;4935632;29;20188;-74
2023/09/26 07:40:51;;;;;;;10.70;8.67;;;;;;;;;;4936544;29;20184;-75
2023/09/26 07:43:55;;;;;;;10.50;8.70;;;;;;;;;;4936360;29;20215;-75
2023/09/26 07:46:59;;;;;;;8.47;7.67;;;;;;;;;;4924752;29;20570;-75
2023/09/26 07:50:05;;;;;;;9.60;7.67;;;;;;;;;;4935172;29;20184;-74
2023/09/26 07:53:09;;;;;;;10.47;8.33;;;;;;;;;;4935956;29;20220;-75
2023/09/26 07:56:13;;;;;;;13.90;9.13;;;;;;;;;;4936147;29;20199;-75
2023/09/26 07:59:18;;;;;;;8.30;7.40;;;;;;;;;;4935060;29;20211;-74
2023/09/26 08:02:22;;;;;;;8.57;7.03;;;;;;;;;;4935124;29;20568;-74
2023/09/26 08:05:26;;;;;;;9.73;8.73;;;;;;;;;;4936144;29;20177;-74
2023/09/26 08:08:30;;;;;;;11.80;8.57;;;;;;;;;;4935397;29;20184;-74
2023/09/26 08:11:34;;;;;;;10.83;9.77;;;;;;;;;;4934762;29;20236;-75
2023/09/26 08:14:38;;;;;;;10.47;8.67;;;;;;;;;;4924343;29;20181;-74
2023/09/26 08:17:43;;;;;;;10.80;8.77;;;;;;;;;;4924569;29;20192;-73
2023/09/26 08:20:46;;;;;;;11.13;8.93;;;;;;;;;;4936092;29;20657;-74
2023/09/26 08:23:50;;;;;;;13.63;8.70;;;;;;;;;;4935799;29;20208;-74
2023/09/26 08:26:55;;;;;;;9.97;8.00;;;;;;;;;;4934914;29;20191;-74
2023/09/26 08:29:59;;;;;;;15.47;8.90;;;;;;;;;;4935121;29;20184;-73
2023/09/26 08:33:03;;;;;;;10.27;8.83;;;;;;;;;;4935526;29;20237;-73
2023/09/26 08:36:17;;;;;;;9.20;8.30;;;;;;;;;;4936011;29;20195;-73
2023/09/26 08:39:21;;;;;;;8.83;8.00;;;;;;;;;;4935504;29;20176;-73
2023/09/26 08:42:27;;;;;;;10.30;8.67;;;;;;;;;;4938953;29;20224;-73
2023/09/26 08:45:31;;;;;;;10.07;8.70;;;;;;;;;;4939963;29;20185;-73
2023/09/26 08:48:37;;;;;;;10.13;8.40;;;;;;;;;;4939289;29;20188;-73
2023/09/26 08:51:42;;;;;;;12.40;9.80;;;;;;;;;;4938457;29;20220;-73
2023/09/26 08:54:46;;;;;;;9.80;8.80;;;;;;;;;;4938215;29;20191;-73
2023/09/26 08:57:50;;;;;;;9.00;8.10;;;;;;;;;;4939170;29;20188;-72
2023/09/26 09:00:55;;;;;;;9.83;8.83;;;;;;;;;;4938820;29;20185;-73
2023/09/26 09:03:59;;;;;;;12.43;8.80;;;;;;;;;;4938056;29;20217;-72
2023/09/26 09:07:04;;;;;;;10.70;8.43;;;;;;;;;;4939203;29;20189;-73
2023/09/26 09:10:13;;;;;;;10.17;8.77;;;;;;;;;;4938934;29;20179;-72
2023/09/26 09:13:27;;;;;;;12.77;8.90;;;;;;;;;;4937726;29;20228;-73
2023/09/26 09:16:31;;;;;;;11.40;8.70;;;;;;;;;;4938986;29;20202;-73
2023/09/26 09:19:50;;;;;;;10.97;7.73;;;;;;;;;;4938474;29;20658;-73
2023/09/26 09:23:04;;;;;;;28.00;9.80;;;;;;;;;;4938615;29;20220;-73
2023/09/26 09:26:12;;;;;;;9.60;8.60;;;;;;;;;;4937595;29;20184;-73
2023/09/26 09:29:21;;;;;;;8.97;6.97;;;;;;;;;;4937771;29;20186;-73
2023/09/26 09:32:25;;;;;;;12.35;9.70;;;;;;;;;;4937719;29;20212;-73
2023/09/26 09:35:29;;;;;;;11.23;8.27;;;;;;;;;;4938257;29;20213;-73
2023/09/26 09:38:34;;;;;;;15.02;10.18;;;;;;;;;;4937469;29;20195;-73
2023/09/26 09:41:39;;;;;;;15.75;9.43;;;;;;;;;;4938717;29;20579;-74
2023/09/26 09:44:43;;;;;;;10.30;8.00;;;;;;;;;;4937241;29;20215;-73
2023/09/26 09:47:48;;;;;;;12.00;9.05;;;;;;;;;;4937891;29;20195;-73
2023/09/26 09:50:54;;;;;;;10.15;7.88;;;;;;;;;;4938133;29;20193;-73
2023/09/26 09:54:00;;;;;;;9.05;8.15;;;;;;;;;;4937342;29;20195;-73
2023/09/26 09:57:10;;;;;;;11.77;8.80;;;;;;;;;;4926566;29;20523;-73
2023/09/26 10:00:15;;;;;;;10.73;7.15;;;;;;;;;;4937918;29;20544;-73
2023/09/26 10:03:20;;;;;;;11.82;9.00;;;;;;;;;;4937537;29;20593;-73
2023/09/26 10:06:24;;;;;;;10.82;8.13;;;;;;;;;;4937790;29;20190;-73
2023/09/26 10:09:31;;;;;;;8.77;7.80;;;;;;;;;;4937745;29;20197;-73
2023/09/26 10:12:38;;;;;;;10.07;7.35;;;;;;;;;;4937509;29;20710;-73
2023/09/26 10:16:03;;;;;;;9.52;7.60;;;;;;;;;;4937397;29;20190;-73
2023/09/26 10:19:08;;;;;;;11.40;7.22;;;;;;;;;;4937386;29;20534;-74
2023/09/26 10:22:16;;;;;;;8.75;5.75;;;;;;;;;;4937366;29;20228;-73
2023/09/26 10:25:23;;;;;;;9.02;6.70;;;;;;;;;;4937521;29;20219;-73
2023/09/26 10:28:26;;;;;;;6.03;5.07;;;;;;;;;;4937156;29;20185;-74
2023/09/26 10:31:32;;;;;;;7.40;6.70;;;;;;;;;;4936628;29;20193;-75
2023/09/26 10:34:37;;;;;;;7.70;6.88;;;;;;;;;;4937251;29;20190;-74
2023/09/26 10:37:44;;;;;;;7.22;6.03;;;;;;;;;;4937489;29;20524;-74
2023/09/26 10:40:49;;;;;;;9.73;5.70;;;;;;;;;;4936464;29;20184;-74
2023/09/26 10:43:53;;;;;;;9.02;6.63;;;;;;;;;;4936997;29;20554;-73
2023/09/26 10:46:57;;;;;;;11.90;7.47;;;;;;;;;;4937011;29;20633;-73
2023/09/26 10:50:03;;;;;;;10.93;7.93;;;;;;;;;;4937079;29;20203;-73
2023/09/26 10:53:07;;;;;;;8.85;6.45;;;;;;;;;;4936891;29;20228;-73
2023/09/26 10:56:11;;;;;;;10.32;6.20;;;;;;;;;;4936651;29;20178;-73
2023/09/26 10:59:18;;;;;;;8.32;7.50;;;;;;;;;;4936803;29;20556;-73
2023/09/26 11:02:23;;;;;;;9.35;5.70;;;;;;;;;;4936152;29;20224;-73
2023/09/26 11:05:27;;;;;;;9.25;6.45;;;;;;;;;;4936260;29;20217;-73
2023/09/26 11:08:32;;;;;;;9.98;6.75;;;;;;;;;;4936779;29;20194;-74
2023/09/26 11:11:36;;;;;;;10.50;7.93;;;;;;;;;;4936433;29;20223;-74
2023/09/26 11:14:41;;;;;;;9.45;7.63;;;;;;;;;;4935838;29;20181;-73
2023/09/26 11:17:48;;;;;;;9.18;8.27;;;;;;;;;;4936359;29;20182;-73
2023/09/26 11:20:52;;;;;;;9.95;8.95;;;;;;;;;;4936804;29;20184;-73
2023/09/26 11:23:56;;;;;;;10.25;8.45;;;;;;;;;;4935461;29;20220;-74
2023/09/26 11:27:04;;;;;;;10.10;8.30;;;;;;;;;;4936503;29;20196;-73
2023/09/26 11:30:13;;;;;;;12.80;8.37;;;;;;;;;;4936626;29;20192;-73
2023/09/26 11:33:17;;;;;;;12.37;7.83;;;;;;;;;;4936523;29;20221;-73
2023/09/26 11:36:22;;;;;;;9.77;6.67;;;;;;;;;;4935562;29;20195;-73
2023/09/26 11:39:26;;;;;;;10.63;6.87;;;;;;;;;;4936411;29;20182;-73
2023/09/26 11:42:40;;;;;;;11.37;7.73;;;;;;;;;;4935837;29;20243;-73
2023/09/26 11:45:44;;;;;;;7.17;6.40;;;;;;;;;;4936546;29;20219;-73
2023/09/26 11:48:48;;;;;;;10.13;7.65;;;;;;;;;;4936141;29;20189;-74
2023/09/26 11:51:53;;;;;;;10.20;7.57;;;;;;;;;;4935795;29;20224;-74
2023/09/26 11:54:57;;;;;;;7.60;6.55;;;;;;;;;;4935973;29;20177;-73
2023/09/26 11:58:01;;;;;;;8.98;7.47;;;;;;;;;;4935065;29;20185;-74
2023/09/26 12:01:05;;;;;;;9.85;7.05;;;;;;;;;;4936032;29;20186;-73
2023/09/26 12:04:12;;;;;;;7.75;6.00;;;;;;;;;;4936140;29;20211;-74
2023/09/26 12:07:16;;;;;;;12.82;5.53;;;;;;;;;;4936009;29;20193;-74
2023/09/26 12:10:22;;;;;;;7.88;6.85;;;;;;;;;;4935276;29;20671;-74
2023/09/26 12:13:26;;;;;;;9.25;6.57;;;;;;;;;;4935600;29;20231;-74
2023/09/26 12:16:31;;;;;;;6.72;5.88;;;;;;;;;;4937008;29;20187;-76
2023/09/26 12:19:35;;;;;;;11.35;6.80;;;;;;;;;;4940246;29;20623;-74
2023/09/26 12:22:39;;;;;;;7.85;6.35;;;;;;;;;;4939203;29;20218;-73
2023/09/26 12:25:43;;;;;;;11.13;6.72;;;;;;;;;;4939017;29;20219;-74
2023/09/26 12:28:48;;;;;;;11.40;7.22;;;;;;;;;;4939565;29;20559;-73
2023/09/26 12:31:52;;;;;;;13.98;6.72;;;;;;;;;;4938679;29;20231;-73
2023/09/26 12:34:56;;;;;;;9.70;6.65;;;;;;;;;;4938964;29;20196;-73
2023/09/26 12:38:00;;;;;;;7.57;5.57;;;;;;;;;;4939164;29;20184;-73
2023/09/26 12:41:04;;;;;;;6.28;5.68;;;;;;;;;;4939634;29;20188;-72
2023/09/26 12:44:08;;;;;;;7.57;4.43;;;;;;;;;;4938950;29;20183;-73
2023/09/26 12:47:13;;;;;;;5.20;4.53;;;;;;;;;;4939353;29;20195;-73
2023/09/26 12:50:18;;;;;;;11.80;5.65;;;;;;;;;;4939125;29;20182;-73
2023/09/26 12:53:22;;;;;;;6.40;4.32;;;;;;;;;;4939271;29;20310;-74
2023/09/26 12:56:26;;;;;;;5.07;4.50;;;;;;;;;;4939748;29;20178;-73
2023/09/26 12:59:30;;;;;;;5.75;4.70;;;;;;;;;;4939258;29;20650;-73
2023/09/26 13:02:34;;;;;;;5.35;4.00;;;;;;;;;;4938764;29;20217;-73
2023/09/26 13:05:39;;;;;;;4.88;3.90;;;;;;;;;;4938742;29;20222;-73
2023/09/26 13:08:43;;;;;;;8.73;4.55;;;;;;;;;;4938153;29;20195;-73
2023/09/26 13:11:47;;;;;;;6.40;5.68;;;;;;;;;;4937944;29;20548;-73
2023/09/26 13:14:51;;;;;;;5.00;4.22;;;;;;;;;;4938190;29;20187;-73
2023/09/26 13:17:55;;;;;;;5.82;4.47;;;;;;;;;;4938616;29;20192;-73
2023/09/26 13:21:00;;;;;;;10.05;4.57;;;;;;;;;;4938807;29;20190;-73
2023/09/26 13:24:04;;;;;;;5.65;4.38;;;;;;;;;;4938465;29;20199;-73
2023/09/26 13:27:09;;;;;;;4.20;3.80;;;;;;;;;;4938089;29;20180;-73
2023/09/26 13:30:12;;;;;;;8.00;4.45;;;;;;;;;;4938863;29;20186;-73
2023/09/26 13:33:18;;;;;;;6.45;4.20;;;;;;;;;;4938142;29;20223;-73
2023/09/26 13:36:21;;;;;;;4.05;3.42;;;;;;;;;;4937687;29;20183;-73
2023/09/26 13:39:26;;;;;;;6.32;3.78;;;;;;;;;;4937366;29;20528;-73
2023/09/26 13:42:30;;;;;;;3.83;3.38;;;;;;;;;;4937293;29;20708;-73
2023/09/26 13:45:34;;;;;;;6.32;4.32;;;;;;;;;;4938253;29;20668;-73
2023/09/26 13:48:38;;;;;;;8.48;4.30;;;;;;;;;;4938102;29;20194;-73
2023/09/26 13:51:42;;;;;;;6.93;4.78;;;;;;;;;;4938179;29;20217;-73
2023/09/26 13:54:48;;;;;;;8.48;4.75;;;;;;;;;;4937412;29;20546;-73
2023/09/26 13:57:53;;;;;;;7.30;4.30;;;;;;;;;;4937514;29;20190;-73
2023/09/26 14:00:57;;;;;;;8.70;3.95;;;;;;;;;;4936941;29;20179;-73
2023/09/26 14:04:01;;;;;;;6.95;3.63;;;;;;;;;;4937996;29;20634;-73
2023/09/26 14:07:05;;;;;;;7.38;3.88;;;;;;;;;;4937180;29;20179;-73
2023/09/26 14:10:09;;;;;;;6.00;3.78;;;;;;;;;;4937742;29;20192;-73
2023/09/26 14:13:13;;;;;;;6.43;4.00;;;;;;;;;;4937598;29;20594;-73
2023/09/26 14:16:18;;;;;;;4.15;3.60;;;;;;;;;;4937879;29;20547;-73
2023/09/26 14:19:21;;;;;;;8.25;3.97;;;;;;;;;;4937225;29;20195;-73
2023/09/26 14:22:26;;;;;;;5.50;3.70;;;;;;;;;;4937286;29;20224;-73
2023/09/26 14:25:30;;;;;;;5.07;3.85;;;;;;;;;;4936390;29;20214;-74
2023/09/26 14:28:34;;;;;;;4.38;3.55;;;;;;;;;;4937746;29;20187;-73
2023/09/26 14:31:39;;;;;;;6.35;4.35;;;;;;;;;;4937388;29;20217;-73
2023/09/26 14:34:43;;;;;;;5.13;3.50;;;;;;;;;;4937590;29;20626;-73
2023/09/26 14:37:47;;;;;;;6.38;3.67;;;;;;;;;;4937572;29;20181;-73
2023/09/26 14:40:53;;;;;;;6.63;4.35;;;;;;;;;;4937024;29;20187;-73
2023/09/26 14:43:57;;;;;;;6.03;3.53;;;;;;;;;;4937584;29;20187;-73
2023/09/26 14:47:03;;;;;;;5.38;3.65;;;;;;;;;;4937214;29;20183;-73
2023/09/26 14:50:07;;;;;;;3.45;3.15;;;;;;;;;;4936930;29;20194;-73
2023/09/26 14:53:11;;;;;;;9.38;3.88;;;;;;;;;;4936957;29;20221;-73
2023/09/26 14:56:18;;;;;;;6.03;4.28;;;;;;;;;;4937163;29;20183;-73
2023/09/26 14:59:22;;;;;;;4.80;4.00;;;;;;;;;;4936891;29;20194;-73
2023/09/26 15:02:27;;;;;;;8.70;4.13;;;;;;;;;;4936661;29;20226;-73
2023/09/26 15:05:31;;;;;;;7.03;4.43;;;;;;;;;;4937005;29;20219;-73
2023/09/26 15:08:35;;;;;;;6.50;4.07;;;;;;;;;;4936617;29;20190;-73
2023/09/26 15:11:40;;;;;;;6.28;4.07;;;;;;;;;;4936587;29;20225;-73
2023/09/26 15:14:44;;;;;;;6.95;4.70;;;;;;;;;;4936807;29;20349;-73
2023/09/26 15:17:48;;;;;;;4.80;4.22;;;;;;;;;;4937200;29;20177;-73
2023/09/26 15:20:52;;;;;;;8.07;3.72;;;;;;;;;;4936417;29;20187;-73
2023/09/26 15:23:56;;;;;;;5.97;4.15;;;;;;;;;;4936457;29;20186;-73
2023/09/26 15:27:00;;;;;;;4.45;3.95;;;;;;;;;;4935960;29;20217;-73
2023/09/26 15:30:06;;;;;;;6.88;4.43;;;;;;;;;;4936535;29;20192;-73
2023/09/26 15:33:10;;;;;;;6.22;4.55;;;;;;;;;;4936392;29;20557;-73
2023/09/26 15:36:15;;;;;;;11.23;4.55;;;;;;;;;;4935641;29;20192;-73
2023/09/26 15:39:19;;;;;;;6.60;4.33;;;;;;;;;;4935539;29;20668;-73
2023/09/26 15:42:23;;;;;;;5.53;4.20;;;;;;;;;;4936280;29;20222;-73
2023/09/26 15:45:27;;;;;;;8.53;4.57;;;;;;;;;;4935938;29;20556;-73
2023/09/26 15:48:32;;;;;;;8.45;4.60;;;;;;;;;;4935363;29;20194;-73
2023/09/26 15:51:36;;;;;;;7.47;4.90;;;;;;;;;;4936244;29;20222;-73
2023/09/26 15:54:40;;;;;;;4.97;3.90;;;;;;;;;;4936027;29;20188;-73
2023/09/26 15:57:44;;;;;;;6.43;4.67;;;;;;;;;;4936070;29;20180;-73
2023/09/26 16:00:49;;;;;;;11.87;4.60;;;;;;;;;;4935988;29;20191;-73
2023/09/26 16:03:53;;;;;;;9.60;4.97;;;;;;;;;;4935445;29;20190;-73
2023/09/26 16:06:57;;;;;;;7.10;4.90;;;;;;;;;;4936208;29;20213;-73
2023/09/26 16:10:02;;;;;;;6.80;4.90;;;;;;;;;;4935806;29;20185;-73
2023/09/26 16:13:06;;;;;;;6.57;4.87;;;;;;;;;;4935632;29;20576;-73
2023/09/26 16:16:10;;;;;;;7.93;4.57;;;;;;;;;;4936155;29;20192;-73
2023/09/26 16:19:14;;;;;;;6.43;4.50;;;;;;;;;;4934943;29;20531;-73
2023/09/26 16:22:18;;;;;;;6.77;4.77;;;;;;;;;;4935823;29;20226;-73
2023/09/26 16:25:22;;;;;;;5.70;4.47;;;;;;;;;;4936103;29;20218;-73
2023/09/26 16:28:27;;;;;;;5.47;4.33;;;;;;;;;;4936085;29;20185;-73
2023/09/26 16:31:30;;;;;;;6.03;4.83;;;;;;;;;;4935677;29;20636;-73
2023/09/26 16:34:34;;;;;;;5.57;4.13;;;;;;;;;;4935712;29;20193;-73
2023/09/26 16:37:39;;;;;;;5.60;4.67;;;;;;;;;;4935688;29;20184;-73
2023/09/26 16:40:43;;;;;;;5.10;4.33;;;;;;;;;;4935696;29;20633;-73
2023/09/26 16:43:48;;;;;;;7.70;4.30;;;;;;;;;;4935368;29;20189;-73
2023/09/26 16:46:52;;;;;;;5.10;4.50;;;;;;;;;;4934840;29;20553;-73
2023/09/26 16:49:56;;;;;;;7.30;4.77;;;;;;;;;;4935547;29;20629;-73
2023/09/26 16:53:00;;;;;;;6.03;5.00;;;;;;;;;;4935633;29;20216;-73
2023/09/26 16:56:04;;;;;;;6.77;4.80;;;;;;;;;;4934782;29;20188;-73
2023/09/26 16:59:09;;;;;;;5.50;5.00;;;;;;;;;;4934776;29;20526;-73
2023/09/26 17:02:13;;;;;;;6.60;5.40;;;;;;;;;;4936689;29;20700;-73
2023/09/26 17:05:17;;;;;;;6.90;4.77;;;;;;;;;;4927723;29;20184;-73
2023/09/26 17:08:21;;;;;;;5.33;4.60;;;;;;;;;;4938646;29;20533;-73
2023/09/26 17:11:26;;;;;;;8.80;5.43;;;;;;;;;;4938786;29;20188;-73
2023/09/26 17:14:30;;;;;;;6.77;5.17;;;;;;;;;;4939194;29;20188;-73
2023/09/26 17:17:34;;;;;;;11.53;5.30;;;;;;;;;;4938753;29;20180;-73
2023/09/26 17:20:38;;;;;;;11.63;5.83;;;;;;;;;;4938996;29;20196;-74
2023/09/26 17:23:43;;;;;;;34.93;6.60;;;;;;;;;;4937837;29;20205;-73
2023/09/26 17:26:49;;;;;;;16.33;5.90;;;;;;;;;;4938629;29;20667;-73
2023/09/26 17:29:53;;;;;;;7.47;5.00;;;;;;;;;;4938298;29;20191;-73
2023/09/26 17:32:58;;;;;;;11.17;5.73;;;;;;;;;;4926576;29;20584;-73
2023/09/26 17:36:06;;;;;;;11.07;6.33;;;;;;;;;;4938800;29;20537;-73
2023/09/26 17:39:11;;;;;;;10.43;6.83;;;;;;;;;;4937434;29;20187;-73
2023/09/26 17:42:16;;;;;;;7.13;6.43;;;;;;;;;;4938511;29;20229;-73
2023/09/26 17:45:20;;;;;;;7.73;5.70;;;;;;;;;;4938257;29;20625;-73
2023/09/26 17:48:24;;;;;;;7.53;5.87;;;;;;;;;;4938248;29;20173;-73
2023/09/26 17:51:28;;;;;;;10.43;6.33;;;;;;;;;;4938099;29;20189;-73
2023/09/26 17:54:32;;;;;;;8.93;6.00;;;;;;;;;;4926245;29;20655;-73
2023/09/26 17:57:36;;;;;;;9.23;6.67;;;;;;;;;;4938255;29;20177;-73
2023/09/26 18:00:40;;;;;;;7.40;6.60;;;;;;;;;;4937821;29;20525;-73
2023/09/26 18:03:44;;;;;;;10.23;6.60;;;;;;;;;;4937970;29;20184;-73
2023/09/26 18:06:49;;;;;;;8.97;6.93;;;;;;;;;;4926292;29;20231;-73
2023/09/26 18:09:53;;;;;;;9.40;6.57;;;;;;;;;;4937854;29;20188;-73
2023/09/26 18:12:56;;;;;;;8.10;6.73;;;;;;;;;;4936789;29;20231;-73
2023/09/26 18:16:01;;;;;;;10.00;7.00;;;;;;;;;;4937009;29;20184;-72
2023/09/26 18:19:05;;;;;;;8.80;7.90;;;;;;;;;;4937729;29;20187;-73
2023/09/26 18:22:09;;;;;;;7.90;6.80;;;;;;;;;;4937747;29;20220;-72